Aeroporto :
LOGIN :

Iscrizione | Disclaimer

   EN    FR    IT 

 










Sommario :    VFR   VFR Marginale   IFR   IFR Intensivo   IFR Molto Intensivo
Visibilità : 
Base nubi : 
>= 8 km
>= 3000ft
5 / 8 km
1000 / 3000 ft
1500m / 5 km
500 / 1000 ft
800 / 1500m
200 / 500 ft
< 800m
< 200 ft
Simboli :   Temporali  Nebbia  Neve Forte  Precipitazioni Forti  Vento > 20 kt
SIGMETs :   Varie  Temporali  Ghiacco  Turbolenza  Onda orograficha  Ceneri Vulcaniche






- Altitudine del aeroporto : 72 ft
- Codice IATA : UDE


EHVK - Volkel Airbase

ULTIMO METAR :
  • 280525Z AUTO 03007KT 010V070 9999 NCD 11/06 Q1035 BLU

METARs OBSOLETI :
  • 280455Z AUTO 03007KT 010V070 9999 NCD 10/06 Q1035 BLU
  • 280425Z AUTO 03005KT 360V070 9999 NCD 09/05 Q1034 BLU
  • 280355Z AUTO 03004KT 9999 NCD 08/05 Q1034 BLU
  • 280325Z AUTO 03005KT 9999 NCD 09/05 Q1034 BLU
  • 280255Z AUTO 03006KT 9999 NCD 09/05 Q1034 BLU

TAF TAF EHVK
Valido dal 28 a 05 ore il 28 a 17 ore UTC


280429Z 2805/2817 04008KT CAVOK
TEMPO 2807/2820 04009G20KT



MetMap, La meteo Aeronautica in un colpo d'occhio ! - Copyright ORBIFLY Dicembre 2007 - Disclaimer

ORBIFLY MET'MAP TEAM :

Programmazione e sviluppo : Alexandra Zaïnal
Concezione : Baudouin d'Aumeries
Aiuto per la programmazione : Marc-Olivier Méhu
Supporto tecnico e logistico : Manuel Goepfert
Aiuto per la traduzione : Arnaldo La Scala

Contatto : metmap@orbifly.com




FONTI E CREDITI :

   NOAA